Portada
METAR-TAF:

METAR-TAF

Aeropuertos :

Aeródromo de Zeltweg

Zeltweg, Austria

latitud: 47-12N, longitud: 014-45E, altitud: 677 m

Observación

El informe se hizo hace 46 minutos, a las 15:50 UTC
Viento 3 kt del oeste, variando entre sur-suroeste y norte
Temperatura 16°C
Humedad 45%
Presión 1029 hPa
Cielo despejado

METAR: LOXZ 251550Z 28003KT 200V360 20KM SKC 16/04 Q1029 NOSIG

Hora: 17:36 (16:36 UTC)

Pronóstico

El informe se hizo hace 2 horas y 21 minutos, a las 14:15 UTC
Pronóstico válido del 25 a las 15 UTC al 25 a las 24 UTC
Viento 3 kt con dirección variable
Visibilidad 10 km o más
Cielo despejado
Temporalmente
del 25 a las 15 UTC al 25 a las 17 UTC
Viento 8 kt del sur-suroeste

TAF: LOXZ 251415Z 2515/2524 VRB03KT 9999 SKC TEMPO 2515/2517 20008KT

Observaciones y pronósticos meteorológicos de más de 4000 aeropuertos (mensajes METAR y TAF).

Los puntos amarillos y rojos representan las estaciones disponibles.

Ponga el ratón en el punto deseado para ver el nombre de la estación.

Haga clic para ver las observaciones y los pronósticos meteorológicos.

Para cambiar el mapa : haga clic en los botones verdes con una cruz de color negro para hacer un zoom, en el botón verde con un guión para alejar o en las flechas verdes para mapas adyacentes.


METAR-TAF: